Cayce, Kentucky
Current Conditions -  °F | °C
As of 12:35 AM on Monday 26 Jan 2015 (Local Time) from KUCY Reporting Station
Overcast Overcast  
Wind Chill: 24°   Ceiling: 1200
Heat Index: 34°   Visibility: 10mi
Dew Point: 34°   Wind: 14mph
Humidity: 100%   Direction: 330°NNW
Pressure: 29.91"   Gusts: NA
Location:  36.5506°N, 88.9261°W
Report Text: KUCY 260635Z AUTO 33012KT 10SM OVC012 01/01 A2991 RMK
Loading
Personal Weather Stations






























Interactive Weather Map New forecast layout! Learn more

10-Day Weather Forecast

Advertisements
Track Severe Weather on mobile